Lovelace, Texas
Current Conditions -  °F | °C
As of 6:15 PM on Friday 21 Nov 2014 (Local Time) from KINJ Reporting Station
Overcast Overcast  
Wind Chill: 66°   Ceiling: 800
Heat Index: 66°   Visibility: 7mi
Dew Point: 62°   Wind: 13mph
Humidity: 86%   Direction: 130°SE
Pressure: 30.05"   Gusts: 18mph
Location:  32.0499°N, 97.1039°W
Report Text: KINJ 220015Z AUTO 13011G16KT 7SM BKN008 OVC014 19/17 A3005 RMK AO2 T01890165
Loading
Personal Weather Stations






























Interactive Weather Map New forecast layout! Learn more

10-Day Weather Forecast

Advertisements
Track Severe Weather on mobile